Time;durP1;ratioP1;P1;durP2;ratioP2;P2;SDS_P1;SDS_P2;PMS_P1;PMS_P2;Temp;Humidity;BMP_temperature;BMP_pressure;BME280_temperature;BME280_humidity;BME280_pressure;Samples;Min_cycle;Max_cycle;Signal;HPM_P1;HPM_P2
2022/12/22 03:28:11;;;;;;;36.83;24.95;;;;;;;16.90;62.35;100292.34;5013561;28;20422;-71
2022/12/22 03:30:37;;;;;;;32.40;25.25;;;;;;;16.90;62.20;100295.06;5013594;28;20066;-72
2022/12/22 03:33:02;;;;;;;36.30;28.23;;;;;;;16.71;62.51;100293.28;5013351;28;20030;-72
2022/12/22 03:35:28;;;;;;;40.13;28.02;;;;;;;17.01;62.03;100298.53;5013594;28;20497;-72
2022/12/22 03:37:53;;;;;;;41.17;27.25;;;;;;;17.09;61.56;100301.47;5013500;28;20281;-72
2022/12/22 03:40:19;;;;;;;34.55;25.77;;;;;;;17.08;62.09;100294.41;5013457;28;20519;-72
2022/12/22 03:48:11;;;;;;;37.40;28.38;;;;;;;17.03;61.79;100294.44;5012819;28;20060;-70
2022/12/22 03:50:37;;;;;;;36.85;27.17;;;;;;;17.05;61.89;100277.88;5012982;28;20681;-72
2022/12/22 03:53:03;;;;;;;42.63;26.73;;;;;;;17.12;61.37;100281.09;5013215;28;20042;-72
2022/12/22 03:55:28;;;;;;;35.90;26.40;;;;;;;17.18;61.55;100282.66;5012279;28;20104;-67
2022/12/22 03:57:54;;;;;;;36.65;26.83;;;;;;;17.16;61.08;100277.50;5012131;28;20038;-66
2022/12/22 04:00:19;;;;;;;34.63;26.67;;;;;;;17.02;61.92;100268.38;5012234;28;20044;-69
2022/12/22 04:02:44;;;;;;;36.03;26.75;;;;;;;16.97;62.01;100273.03;5012679;28;20026;-66
2022/12/22 04:05:10;;;;;;;39.00;26.80;;;;;;;17.00;61.95;100265.13;5011354;28;20042;-67
2022/12/22 04:07:35;;;;;;;38.72;27.27;;;;;;;17.05;61.89;100265.13;5011817;28;20026;-67
2022/12/22 04:12:54;;;;;;;40.35;27.35;;;;;;;16.69;62.84;100267.22;5012192;28;20099;-68
2022/12/22 04:15:25;;;;;;;39.83;27.20;;;;;;;16.85;62.97;100267.13;5011983;28;20045;-66
2022/12/22 04:17:51;;;;;;;39.22;27.33;;;;;;;16.90;62.38;100262.50;4994614;28;20034;-67
2022/12/22 04:20:18;;;;;;;42.20;27.52;;;;;;;17.16;61.74;100265.88;5011641;28;20103;-67
2022/12/22 04:22:44;;;;;;;39.67;28.23;;;;;;;16.77;63.29;100254.13;5011666;28;20129;-67
2022/12/22 04:25:09;;;;;;;43.35;27.15;;;;;;;16.86;62.42;100258.72;5011900;28;20129;-65
2022/12/22 04:27:34;;;;;;;41.10;26.98;;;;;;;16.95;62.32;100259.75;5011523;28;20033;-68
2022/12/22 04:30:00;;;;;;;37.28;28.08;;;;;;;16.88;62.79;100272.00;5011723;28;20045;-69
2022/12/22 04:32:26;;;;;;;39.65;27.85;;;;;;;17.08;62.19;100266.47;5012140;28;20407;-68
2022/12/22 04:34:51;;;;;;;37.17;27.70;;;;;;;17.08;61.77;100271.91;5011199;28;20057;-67
2022/12/22 04:37:16;;;;;;;38.53;27.38;;;;;;;17.07;61.90;100264.81;5011683;28;20045;-69
2022/12/22 04:39:42;;;;;;;43.95;26.38;;;;;;;17.02;61.88;100267.59;5011640;28;20450;-68
2022/12/22 04:42:07;;;;;;;38.80;26.35;;;;;;;16.85;62.47;100267.94;5011470;28;20129;-68
2022/12/22 04:44:32;;;;;;;34.35;25.23;;;;;;;17.20;61.55;100256.84;5010505;28;20041;-68
2022/12/22 04:46:58;;;;;;;37.55;27.00;;;;;;;16.96;62.01;100266.00;5011733;28;20458;-67
2022/12/22 04:49:23;;;;;;;36.45;26.77;;;;;;;17.07;61.90;100260.22;5010925;28;20449;-66
2022/12/22 04:51:49;;;;;;;48.72;28.15;;;;;;;17.06;61.94;100265.94;5011232;28;20379;-67
2022/12/22 04:54:14;;;;;;;37.50;26.42;;;;;;;17.05;61.95;100262.41;5011421;28;20042;-67
2022/12/22 04:56:39;;;;;;;39.47;27.50;;;;;;;17.01;61.86;100271.38;5011653;28;20022;-68
2022/12/22 04:59:05;;;;;;;39.45;26.23;;;;;;;17.07;61.63;100262.94;5011211;28;20040;-68
2022/12/22 05:01:30;;;;;;;40.10;27.95;;;;;;;17.09;61.54;100268.06;5009646;28;20044;-67
2022/12/22 05:03:55;;;;;;;36.42;24.70;;;;;;;17.04;61.81;100266.19;5010472;28;20072;-67
2022/12/22 05:06:21;;;;;;;34.67;25.35;;;;;;;17.06;61.76;100269.44;5010166;28;20175;-67
2022/12/22 05:08:46;;;;;;;38.22;27.13;;;;;;;17.07;61.51;100267.53;4997234;28;20528;-67
2022/12/22 05:11:11;;;;;;;39.65;26.05;;;;;;;17.10;61.41;100270.50;4990907;28;20033;-68
2022/12/22 05:13:37;;;;;;;44.20;25.83;;;;;;;17.14;61.63;100268.06;4998663;28;20525;-66
2022/12/22 05:16:08;;;;;;;38.83;27.15;;;;;;;17.02;62.03;100271.09;5009873;28;20532;-67
2022/12/22 05:18:34;;;;;;;37.15;25.65;;;;;;;17.06;61.81;100272.16;5010583;28;20550;-66
2022/12/22 05:21:05;;;;;;;34.75;26.88;;;;;;;17.03;61.87;100269.19;5010617;28;20398;-67
2022/12/22 05:23:30;;;;;;;130.52;26.75;;;;;;;16.17;64.78;100268.75;5011046;28;20026;-68
2022/12/22 05:25:56;;;;;;;36.63;26.08;;;;;;;16.21;65.04;100270.66;5010256;28;20409;-67
2022/12/22 05:28:21;;;;;;;46.53;25.80;;;;;;;15.75;66.75;100271.81;5010638;28;20115;-66
2022/12/22 05:30:46;;;;;;;40.08;27.17;;;;;;;16.08;65.39;100263.06;5011143;28;20037;-66
2022/12/22 05:33:12;;;;;;;37.90;27.27;;;;;;;15.81;65.96;100268.00;5010842;28;20070;-66
2022/12/22 05:35:37;;;;;;;41.80;27.95;;;;;;;15.65;66.62;100274.53;5010959;28;20041;-65
2022/12/22 05:38:03;;;;;;;41.55;25.75;;;;;;;15.08;70.09;100277.44;5010673;28;20037;-67
2022/12/22 05:40:28;;;;;;;41.38;24.27;;;;;;;15.44;69.07;100275.63;5010742;28;20123;-69
2022/12/22 05:42:53;;;;;;;43.60;24.92;;;;;;;15.89;67.05;100272.88;5010630;28;20044;-68
2022/12/22 05:45:20;;;;;;;39.60;24.17;;;;;;;15.83;66.87;100282.09;5010654;28;20180;-67
2022/12/22 05:47:48;;;;;;;38.35;23.77;;;;;;;15.49;67.57;100287.25;5010342;28;20062;-67
2022/12/22 05:50:16;;;;;;;39.42;23.98;;;;;;;15.49;68.08;100284.56;5009230;28;20054;-67
2022/12/22 05:52:41;;;;;;;41.75;22.63;;;;;;;15.66;68.29;100281.59;4992569;28;20045;-69
2022/12/22 05:55:08;;;;;;;36.30;21.13;;;;;;;16.02;66.32;100285.06;5010298;28;20103;-67
2022/12/22 05:57:35;;;;;;;41.65;22.75;;;;;;;15.61;68.58;100295.13;4989340;28;20033;-66
2022/12/22 06:00:00;;;;;;;46.08;21.60;;;;;;;15.96;66.68;100278.03;5009676;28;20041;-68
2022/12/22 06:02:26;;;;;;;45.72;24.73;;;;;;;16.47;64.41;100282.22;5008058;28;20485;-69
2022/12/22 06:04:51;;;;;;;43.60;22.08;;;;;;;16.79;63.18;100289.94;5008742;28;20037;-67
2022/12/22 06:07:17;;;;;;;45.75;22.58;;;;;;;16.30;64.30;100279.00;5009203;28;20026;-68
2022/12/22 06:09:42;;;;;;;50.35;23.08;;;;;;;16.34;64.59;100282.78;4989488;28;20506;-67
2022/12/22 06:12:08;;;;;;;42.20;22.52;;;;;;;15.77;66.51;100275.88;5008167;28;20030;-67
2022/12/22 06:14:33;;;;;;;42.03;22.98;;;;;;;16.45;64.84;100263.50;5010543;28;20030;-67
2022/12/22 06:16:59;;;;;;;50.63;24.55;;;;;;;16.38;64.20;100273.00;5009997;28;20613;-67
2022/12/22 06:19:24;;;;;;;48.20;24.10;;;;;;;16.47;63.95;100260.53;5009966;28;20125;-67
2022/12/22 06:21:50;;;;;;;38.72;20.75;;;;;;;16.63;63.05;100262.91;5007089;28;20184;-66
2022/12/22 06:24:15;;;;;;;38.42;21.33;;;;;;;16.60;62.92;100274.31;5007489;28;20100;-68
2022/12/22 06:26:40;;;;;;;40.80;21.85;;;;;;;15.22;66.87;100296.69;5010381;28;20092;-68
2022/12/22 06:29:06;;;;;;;43.85;21.95;;;;;;;15.35;67.65;100293.47;5012829;28;20034;-67
2022/12/22 06:31:31;;;;;;;49.60;22.33;;;;;;;15.76;65.64;100314.09;5013397;28;20038;-67
2022/12/22 06:33:56;;;;;;;48.60;21.60;;;;;;;15.92;65.01;100318.38;5013354;28;20125;-66
2022/12/22 06:36:22;;;;;;;52.75;24.23;;;;;;;14.77;69.35;100322.56;5013181;28;20129;-67
2022/12/22 06:38:47;;;;;;;52.97;25.40;;;;;;;14.31;71.70;100330.72;5014100;28;20160;-67
2022/12/22 06:41:13;;;;;;;44.80;20.38;;;;;;;13.09;76.67;100331.59;5011997;28;20040;-67
2022/12/22 06:43:38;;;;;;;54.17;24.33;;;;;;;13.74;75.55;100333.25;5013433;28;20050;-68
2022/12/22 06:46:03;;;;;;;65.82;28.60;;;;;;;13.96;74.32;100342.91;5013648;28;20510;-66
2022/12/22 06:48:29;;;;;;;83.88;30.58;;;;;;;13.84;75.20;100347.66;5012692;28;20066;-69
2022/12/22 06:50:58;;;;;;;87.70;33.25;;;;;;;13.35;76.44;100343.44;5001717;28;20106;-68
2022/12/22 06:53:24;;;;;;;112.05;37.50;;;;;;;13.70;75.81;100345.69;4993553;28;20332;-67
2022/12/22 06:55:50;;;;;;;100.15;32.47;;;;;;;14.11;72.86;100363.81;5001787;28;20063;-70
2022/12/22 06:58:15;;;;;;;99.82;36.40;;;;;;;14.78;69.52;100353.94;4987840;28;20454;-67
2022/12/22 07:00:41;;;;;;;105.60;35.55;;;;;;;14.36;72.13;100364.00;5013005;28;20420;-67
2022/12/22 07:03:07;;;;;;;80.45;28.60;;;;;;;13.12;74.19;100368.88;5012668;28;20034;-67
2022/12/22 07:05:32;;;;;;;123.95;38.25;;;;;;;13.42;75.14;100375.66;5013198;28;20044;-67
2022/12/22 07:07:58;;;;;;;113.22;34.75;;;;;;;13.49;74.81;100376.25;5012713;28;20042;-67
2022/12/22 07:10:56;;;;;;;124.22;39.45;;;;;;;13.90;72.66;100378.22;5011318;28;20042;-66
2022/12/22 07:13:20;;;;;;;123.47;37.85;;;;;;;14.32;70.59;100381.81;5013107;28;20056;-67
2022/12/22 07:15:47;;;;;;;132.43;39.22;;;;;;;14.32;70.08;100398.03;5010997;28;20034;-68
2022/12/22 07:18:12;;;;;;;135.48;40.55;;;;;;;13.59;72.93;100393.38;5012548;28;20029;-66
2022/12/22 07:20:37;;;;;;;131.30;38.35;;;;;;;14.59;69.18;100387.94;5012789;28;20091;-67
2022/12/22 07:23:03;;;;;;;136.90;38.85;;;;;;;15.53;66.04;100391.25;5011477;28;20042;-67
2022/12/22 07:25:28;;;;;;;136.07;38.67;;;;;;;15.00;66.33;100393.53;5009184;28;20046;-68
2022/12/22 07:27:53;;;;;;;114.28;33.30;;;;;;;14.44;68.33;100406.78;5013108;28;20490;-67
2022/12/22 07:30:19;;;;;;;150.05;39.33;;;;;;;14.42;69.13;100402.69;5012763;28;20135;-68
2022/12/22 07:32:44;;;;;;;123.05;35.58;;;;;;;14.50;67.92;100399.50;5013307;28;20484;-66
2022/12/22 07:35:09;;;;;;;126.88;38.00;;;;;;;14.63;68.97;100396.31;5010365;28;20125;-67
2022/12/22 07:37:35;;;;;;;110.88;33.63;;;;;;;14.48;68.92;100404.34;5012831;28;20294;-67
2022/12/22 07:40:00;;;;;;;115.30;34.70;;;;;;;14.51;67.60;100398.41;5009196;28;20036;-67
2022/12/22 07:42:43;;;;;;;101.70;33.03;;;;;;;14.70;67.38;100408.53;5011368;28;20519;-68
2022/12/22 07:45:10;;;;;;;111.22;33.70;;;;;;;14.56;67.45;100422.78;5010355;28;20029;-67
2022/12/22 07:47:36;;;;;;;106.32;33.50;;;;;;;14.04;69.58;100417.25;5011519;28;20101;-67
2022/12/22 07:52:46;;;;;;;104.30;33.92;;;;;;;15.22;65.54;100422.03;5011421;28;20202;-68
2022/12/22 07:55:11;;;;;;;99.28;32.63;;;;;;;15.26;64.93;100425.81;4993633;28;20037;-66
2022/12/22 07:57:37;;;;;;;90.65;32.95;;;;;;;14.95;66.50;100416.78;5011934;28;20050;-67
2022/12/22 08:00:03;;;;;;;90.45;31.00;;;;;;;14.58;66.63;100428.75;5010531;28;20120;-67
2022/12/22 08:02:28;;;;;;;76.45;28.58;;;;;;;14.51;67.91;100430.84;5011320;28;20474;-68
2022/12/22 08:04:53;;;;;;;83.45;29.02;;;;;;;14.46;66.60;100423.56;5011862;28;20030;-66
2022/12/22 08:07:19;;;;;;;84.28;28.17;;;;;;;14.14;68.53;100430.84;5011630;28;20044;-68
2022/12/22 08:09:44;;;;;;;84.38;28.05;;;;;;;14.10;68.34;100440.53;5012493;28;20693;-67
2022/12/22 08:12:10;;;;;;;91.18;29.02;;;;;;;14.28;68.33;100445.59;5012207;28;20386;-68
2022/12/22 08:14:35;;;;;;;100.30;28.50;;;;;;;13.70;70.55;100456.38;5012974;28;20049;-67
2022/12/22 08:17:00;;;;;;;91.60;31.67;;;;;;;14.76;66.07;100450.75;5012030;28;20103;-67
2022/12/22 08:19:26;;;;;;;98.72;29.33;;;;;;;14.74;66.89;100455.63;5009540;28;20128;-69
2022/12/22 08:21:51;;;;;;;105.20;32.55;;;;;;;14.67;67.37;100454.22;5010356;28;20113;-68
2022/12/22 08:24:16;;;;;;;110.60;30.70;;;;;;;15.13;64.68;100452.56;5011941;28;20512;-67
2022/12/22 08:26:45;;;;;;;100.38;30.25;;;;;;;15.51;63.31;100453.00;5012280;28;20045;-67
2022/12/22 08:29:22;;;;;;;105.22;29.95;;;;;;;14.98;65.91;100455.22;5011911;28;20525;-68
2022/12/22 08:31:48;;;;;;;106.93;31.38;;;;;;;14.62;67.14;100454.19;5012154;28;20141;-67
2022/12/22 08:34:15;;;;;;;98.15;31.23;;;;;;;15.51;64.14;100453.00;5011673;28;20065;-66
2022/12/22 08:36:47;;;;;;;84.65;28.10;;;;;;;15.54;63.83;100452.50;5011729;28;20453;-67
2022/12/22 08:39:15;;;;;;;94.32;29.52;;;;;;;14.77;66.24;100457.00;5011669;28;20030;-67
2022/12/22 08:41:49;;;;;;;102.63;28.38;;;;;;;14.27;68.59;100456.63;5011971;28;20084;-66
2022/12/22 08:44:20;;;;;;;85.50;27.92;;;;;;;14.91;66.20;100474.38;5011501;28;20069;-67
2022/12/22 08:46:46;;;;;;;92.50;28.35;;;;;;;15.00;66.29;100474.72;5011304;28;20081;-67
2022/12/22 08:49:12;;;;;;;98.75;28.23;;;;;;;15.09;65.74;100482.06;5011632;28;20057;-67
2022/12/22 08:51:37;;;;;;;88.43;27.55;;;;;;;14.97;65.24;100489.56;5011188;28;20506;-66
2022/12/22 08:54:03;;;;;;;95.43;24.52;;;;;;;14.39;67.47;100490.53;5011684;28;20026;-67
2022/12/22 08:56:29;;;;;;;108.65;27.17;;;;;;;14.25;69.45;100497.41;5011739;28;20041;-67
2022/12/22 08:58:55;;;;;;;89.50;23.83;;;;;;;13.54;70.96;100495.88;5011431;28;20053;-66
2022/12/22 09:01:21;;;;;;;103.38;25.33;;;;;;;14.02;69.83;100497.75;5011287;28;20052;-66
2022/12/22 09:03:49;;;;;;;87.63;22.98;;;;;;;14.06;69.72;100506.97;5011176;28;20054;-67
2022/12/22 09:06:14;;;;;;;76.10;20.77;;;;;;;13.87;69.02;100513.81;5011334;28;20386;-67
2022/12/22 09:08:39;;;;;;;71.15;20.10;;;;;;;13.50;71.64;100504.75;5012070;28;20041;-68
2022/12/22 09:11:05;;;;;;;65.65;19.77;;;;;;;13.44;71.95;100517.38;5010964;28;20045;-67
2022/12/22 09:13:30;;;;;;;73.38;19.88;;;;;;;13.60;70.73;100513.75;5011132;28;20577;-67
2022/12/22 09:15:55;;;;;;;65.22;18.33;;;;;;;13.75;69.74;100523.94;5011201;28;20572;-66
2022/12/22 09:18:21;;;;;;;63.08;16.92;;;;;;;13.33;70.80;100523.69;5011195;28;20034;-67
2022/12/22 09:20:46;;;;;;;61.45;16.50;;;;;;;13.38;71.29;100515.69;5011464;28;20073;-66
2022/12/22 09:23:12;;;;;;;61.35;16.33;;;;;;;13.84;69.58;100523.22;5011049;28;20156;-67
2022/12/22 09:25:37;;;;;;;67.57;18.60;;;;;;;14.15;68.00;100527.06;5011265;28;20044;-67
2022/12/22 09:28:06;;;;;;;67.55;16.73;;;;;;;13.72;69.16;100521.75;5011315;28;20549;-67
2022/12/22 09:30:31;;;;;;;56.40;17.83;;;;;;;14.00;68.52;100521.50;5011116;28;20497;-67
2022/12/22 09:32:56;;;;;;;60.13;15.32;;;;;;;13.15;70.71;100516.72;5009646;28;20045;-67
2022/12/22 09:35:22;;;;;;;69.50;19.75;;;;;;;13.23;70.18;100518.19;5011215;28;20212;-67
2022/12/22 09:37:48;;;;;;;64.43;20.05;;;;;;;12.91;71.34;100526.06;5010898;28;20034;-67
2022/12/22 09:40:13;;;;;;;59.88;18.02;;;;;;;13.17;70.37;100527.25;5011046;28;20096;-68
2022/12/22 09:42:39;;;;;;;61.72;17.05;;;;;;;13.90;67.62;100534.91;5010713;28;20037;-66
2022/12/22 09:45:10;;;;;;;57.35;18.08;;;;;;;13.34;68.96;100532.63;5011061;28;20100;-66
2022/12/22 09:47:38;;;;;;;57.60;16.35;;;;;;;13.70;67.69;100548.19;5011173;28;20042;-67
2022/12/22 09:50:07;;;;;;;64.50;19.02;;;;;;;13.88;67.96;100555.94;5010820;28;20042;-67
2022/12/22 09:52:33;;;;;;;66.05;18.73;;;;;;;13.50;68.52;100561.44;5010649;28;20046;-67
2022/12/22 09:54:59;;;;;;;59.05;19.40;;;;;;;13.63;69.25;100566.47;5010827;28;20049;-67
2022/12/22 09:57:30;;;;;;;78.15;21.85;;;;;;;13.20;69.94;100565.38;5010308;28;20529;-65
2022/12/22 10:00:00;;;;;;;62.20;21.02;;;;;;;13.44;70.42;100559.75;5010667;28;20034;-67
2022/12/22 10:02:36;;;;;;;62.10;21.25;;;;;;;13.46;69.46;100569.25;5011362;28;20033;-68
2022/12/22 10:05:13;;;;;;;52.08;18.60;;;;;;;14.16;67.16;100566.50;5014463;28;20414;-66
2022/12/22 10:07:41;;;;;;;62.78;22.63;;;;;;;14.15;66.59;100574.88;5014422;28;20041;-67
2022/12/22 10:10:23;;;;;;;64.72;21.90;;;;;;;13.95;68.13;100572.78;4996820;28;20040;-68
2022/12/22 10:12:50;;;;;;;65.82;22.13;;;;;;;14.09;67.50;100565.91;5014436;28;20057;-66
2022/12/22 10:15:15;;;;;;;70.47;22.02;;;;;;;14.25;66.60;100558.78;5014084;28;20220;-69
2022/12/22 10:17:41;;;;;;;71.22;23.60;;;;;;;13.66;68.60;100550.56;5014930;28;20042;-67
2022/12/22 10:20:26;;;;;;;58.67;21.90;;;;;;;14.36;66.32;100550.53;5014203;28;20104;-67
2022/12/22 10:23:18;;;;;;;55.67;20.73;;;;;;;14.42;66.38;100544.09;5014268;28;20100;-67
2022/12/22 10:25:55;;;;;;;71.05;21.58;;;;;;;14.50;65.72;100551.75;4914559;29;20065;-68
2022/12/22 10:28:25;;;;;;;79.10;22.35;;;;;;;14.78;65.24;100551.41;4914944;29;20044;-68
2022/12/22 10:31:27;;;;;;;65.80;22.45;;;;;;;14.34;66.31;100568.88;4914934;29;20541;-68
2022/12/22 10:34:13;;;;;;;61.70;23.17;;;;;;;14.23;66.83;100555.50;4914934;29;20043;-67
2022/12/22 10:36:41;;;;;;;69.13;22.73;;;;;;;13.83;68.17;100559.44;4914406;29;20047;-69
2022/12/22 10:39:09;;;;;;;76.40;22.67;;;;;;;13.90;67.80;100545.69;4915122;29;20111;-68
2022/12/22 10:41:47;;;;;;;74.15;23.33;;;;;;;13.87;68.03;100549.75;4933980;29;20222;-67
2022/12/22 10:44:12;;;;;;;75.95;22.23;;;;;;;14.56;66.46;100553.41;4933647;29;20168;-67
2022/12/22 10:46:49;;;;;;;71.20;21.33;;;;;;;13.79;67.76;100552.91;4933949;29;20055;-67
2022/12/22 10:49:27;;;;;;;65.93;22.25;;;;;;;14.03;68.72;100566.94;4933695;29;20063;-68
2022/12/22 10:52:15;;;;;;;63.15;20.60;;;;;;;14.14;67.81;100560.56;4933433;29;20052;-68
2022/12/22 10:54:43;;;;;;;71.57;20.92;;;;;;;14.00;67.76;100572.81;4933568;29;20129;-67
2022/12/22 10:57:15;;;;;;;75.13;22.25;;;;;;;14.07;66.39;100578.88;4923884;29;20108;-68
2022/12/22 10:59:54;;;;;;;42.13;14.07;;;;;;;13.63;69.02;100590.75;4915439;29;20226;-67
2022/12/22 11:02:19;;;;;;;59.83;19.88;;;;;;;14.12;67.38;100584.31;4941715;28;20367;-67
2022/12/22 11:04:44;;;;;;;53.28;18.63;;;;;;;14.53;65.56;100591.78;5013213;28;20048;-67
2022/12/22 11:07:10;;;;;;;58.85;18.42;;;;;;;14.90;64.95;100599.91;5011303;28;20030;-67
2022/12/22 11:09:35;;;;;;;56.53;18.67;;;;;;;14.95;64.15;100584.56;5013389;28;20068;-67
2022/12/22 11:12:20;;;;;;;48.05;18.85;;;;;;;14.29;64.65;100589.66;5013423;28;20042;-67
2022/12/22 11:14:56;;;;;;;45.88;14.52;;;;;;;14.14;65.33;100606.50;5014307;28;20451;-66
2022/12/22 11:17:27;;;;;;;40.95;13.40;;;;;;;14.05;66.23;100594.50;5013015;28;20109;-67
2022/12/22 11:20:34;;;;;;;37.72;14.60;;;;;;;14.32;65.54;100594.53;5011814;28;20057;-68
2022/12/22 11:23:06;;;;;;;37.95;13.13;;;;;;;14.74;63.93;100596.28;5013294;28;20030;-68
2022/12/22 11:26:05;;;;;;;46.88;12.75;;;;;;;14.21;65.09;100595.50;5012989;28;20042;-67
2022/12/22 11:28:43;;;;;;;26.92;9.57;;;;;;;14.06;65.23;100610.47;5012904;28;20195;-66
2022/12/22 11:31:36;;;;;;;27.02;8.65;;;;;;;14.16;65.66;100601.66;5012815;28;20042;-68
2022/12/22 11:34:20;;;;;;;24.20;8.57;;;;;;;14.27;65.31;100603.38;5012856;28;20034;-68
2022/12/22 11:37:06;;;;;;;31.67;9.13;;;;;;;14.11;64.96;100598.91;5012643;28;20041;-68
2022/12/22 11:39:55;;;;;;;20.05;8.80;;;;;;;13.70;66.56;100596.81;4993601;28;20050;-67
2022/12/22 11:42:51;;;;;;;20.95;8.73;;;;;;;14.56;63.87;100603.97;4995485;28;20679;-68
2022/12/22 11:45:29;;;;;;;20.27;9.93;;;;;;;14.39;64.59;100593.25;5012520;28;20034;-66
2022/12/22 11:48:03;;;;;;;22.30;8.05;;;;;;;14.44;65.03;100595.19;5010642;28;20022;-67
2022/12/22 11:50:41;;;;;;;21.70;7.90;;;;;;;14.04;65.77;100606.38;5009671;28;20066;-68
2022/12/22 11:53:31;;;;;;;26.13;10.80;;;;;;;14.49;64.47;100603.34;5011863;28;20042;-68
2022/12/22 11:56:15;;;;;;;20.13;8.05;;;;;;;13.91;66.65;100609.47;5010709;28;20053;-68
2022/12/22 11:58:59;;;;;;;25.05;7.95;;;;;;;14.10;67.12;100606.19;5010817;28;20079;-69
2022/12/22 12:01:53;;;;;;;21.60;8.20;;;;;;;14.26;65.88;100607.16;5011539;28;20086;-68
2022/12/22 12:04:52;;;;;;;22.40;9.05;;;;;;;14.75;64.44;100603.31;5010711;28;20041;-68
2022/12/22 12:07:39;;;;;;;21.75;8.70;;;;;;;14.94;62.96;100611.84;4997794;28;20525;-67
2022/12/22 12:10:20;;;;;;;28.48;8.77;;;;;;;14.75;64.29;100616.84;4993080;28;20589;-68
2022/12/22 12:13:07;;;;;;;25.50;8.23;;;;;;;14.74;64.55;100615.19;4995895;28;20037;-67
2022/12/22 12:15:47;;;;;;;16.33;6.13;;;;;;;14.25;66.23;100618.22;5012273;28;20082;-67
2022/12/22 12:18:53;;;;;;;19.08;6.85;;;;;;;14.49;65.05;100606.06;5010395;28;20509;-68
2022/12/22 12:21:27;;;;;;;21.60;7.45;;;;;;;14.84;64.50;100606.34;4950907;29;20161;-68
2022/12/22 12:24:17;;;;;;;13.60;6.43;;;;;;;15.01;63.82;100614.34;4951725;29;20074;-68
2022/12/22 12:26:55;;;;;;;18.25;7.03;;;;;;;14.81;64.03;100613.13;4950574;28;20055;-67
2022/12/22 12:29:26;;;;;;;20.48;5.53;;;;;;;14.58;64.27;100608.06;4950700;29;20110;-67
2022/12/22 12:32:20;;;;;;;15.68;6.45;;;;;;;14.51;64.98;100606.59;4950705;29;20055;-66
2022/12/22 12:34:51;;;;;;;15.63;5.65;;;;;;;15.12;63.49;100603.31;4951031;29;20039;-66
2022/12/22 12:37:21;;;;;;;16.05;6.55;;;;;;;14.77;63.94;100606.59;4951916;28;20074;-69
2022/12/22 12:40:04;;;;;;;15.82;5.88;;;;;;;14.61;64.53;100601.28;4953859;28;20047;-67
2022/12/22 12:42:35;;;;;;;22.38;8.25;;;;;;;14.46;65.20;100585.78;4969842;28;20038;-67
2022/12/22 12:45:01;;;;;;;;;;;;;;;14.69;64.35;100587.31;4970774;28;20049;-68
2022/12/22 12:47:28;;;;;;;16.98;5.15;;;;;;;14.98;63.59;100594.84;4970182;28;19922;-66
2022/12/22 12:50:23;;;;;;;20.10;6.25;;;;;;;14.78;63.97;100596.59;4969793;28;20046;-69
2022/12/22 12:53:04;;;;;;;11.32;5.55;;;;;;;14.83;64.53;100596.63;4969591;28;20093;-69
2022/12/22 12:55:31;;;;;;;16.48;5.63;;;;;;;15.09;63.39;100594.91;4970020;28;20070;-66
2022/12/22 12:57:58;;;;;;;16.92;6.93;;;;;;;15.06;62.96;100592.72;4983133;28;20049;-68
2022/12/22 13:00:32;;;;;;;22.63;7.15;;;;;;;15.49;62.07;100606.00;5011474;28;20037;-66
2022/12/22 13:03:03;;;;;;;13.57;5.65;;;;;;;15.75;60.69;100589.63;5011115;28;20042;-67
2022/12/22 13:05:35;;;;;;;14.73;7.00;;;;;;;14.73;63.29;100593.81;5011539;28;20037;-69
2022/12/22 13:08:03;;;;;;;13.43;5.07;;;;;;;14.38;64.89;100588.94;4993335;28;20048;-67
2022/12/22 13:10:29;;;;;;;9.90;4.75;;;;;;;14.75;63.45;100606.03;5011239;28;20069;-67
2022/12/22 13:12:56;;;;;;;14.07;4.63;;;;;;;15.16;62.91;100601.72;5011202;28;20139;-66
2022/12/22 13:15:34;;;;;;;13.02;4.68;;;;;;;15.13;63.00;100604.97;4993529;28;20066;-69
2022/12/22 13:18:02;;;;;;;14.02;5.63;;;;;;;14.74;63.52;100604.38;5011181;28;20116;-67
2022/12/22 13:20:36;;;;;;;17.73;5.30;;;;;;;14.73;64.00;100599.25;5011711;28;20426;-67
2022/12/22 13:23:09;;;;;;;9.68;4.47;;;;;;;14.84;63.69;100601.75;5010923;28;20034;-69
2022/12/22 13:25:52;;;;;;;11.55;4.03;;;;;;;14.82;63.33;100606.63;5011072;28;20551;-67
2022/12/22 13:28:20;;;;;;;12.20;3.72;;;;;;;14.74;63.72;100606.28;5010960;28;20053;-68
2022/12/22 13:30:55;;;;;;;13.30;5.60;;;;;;;15.20;62.41;100602.00;5011085;28;20042;-68
2022/12/22 13:33:24;;;;;;;9.93;4.13;;;;;;;15.23;61.84;100606.91;5010740;28;20042;-68
2022/12/22 13:35:49;;;;;;;13.95;5.72;;;;;;;14.64;63.92;100611.63;5011441;28;20037;-68
2022/12/22 13:38:29;;;;;;;13.55;5.15;;;;;;;14.98;63.07;100607.53;5012221;28;20034;-67
2022/12/22 13:41:01;;;;;;;13.38;4.20;;;;;;;15.54;60.97;100616.88;5015488;28;20030;-68
2022/12/22 13:43:29;;;;;;;12.75;4.65;;;;;;;15.27;61.58;100608.03;5015141;28;20758;-68
2022/12/22 13:45:57;;;;;;;16.23;5.53;;;;;;;15.13;62.48;100610.38;5015284;28;20170;-66
2022/12/22 13:48:29;;;;;;;19.40;8.23;;;;;;;15.57;60.92;100613.63;5014998;28;20053;-67
2022/12/22 13:51:01;;;;;;;28.45;14.48;;;;;;;15.10;62.46;100608.19;4997522;28;20034;-67
2022/12/22 13:53:37;;;;;;;15.80;8.23;;;;;;;14.82;62.36;100605.78;5013552;28;20089;-68
2022/12/22 13:56:11;;;;;;;20.25;8.15;;;;;;;15.04;62.91;100614.63;5014737;28;20062;-68
2022/12/22 13:58:40;;;;;;;20.60;10.98;;;;;;;14.48;64.40;100609.84;5014650;28;20372;-68
2022/12/22 14:01:08;;;;;;;19.20;10.25;;;;;;;14.34;65.01;100616.72;5014708;28;20064;-67
2022/12/22 14:03:35;;;;;;;24.42;10.23;;;;;;;14.59;64.09;100614.25;5014612;28;20038;-70
2022/12/22 14:06:01;;;;;;;18.00;10.93;;;;;;;14.89;63.60;100609.13;5014571;28;20034;-67
2022/12/22 14:08:26;;;;;;;24.42;12.18;;;;;;;14.36;64.85;100606.47;5014672;28;20099;-68
2022/12/22 14:10:53;;;;;;;22.58;12.20;;;;;;;14.51;65.13;100612.84;5011671;28;20053;-69
2022/12/22 14:13:24;;;;;;;20.65;11.55;;;;;;;15.26;62.02;100614.50;5012478;28;20084;-67
2022/12/22 14:16:00;;;;;;;18.25;11.73;;;;;;;14.94;63.41;100611.84;5012166;28;20061;-68
2022/12/22 14:18:25;;;;;;;29.15;12.77;;;;;;;14.98;63.16;100605.66;5011258;28;20036;-68
2022/12/22 14:20:51;;;;;;;21.63;11.40;;;;;;;15.01;63.19;100612.47;5014283;28;20398;-68
2022/12/22 14:23:31;;;;;;;16.73;10.23;;;;;;;14.95;63.04;100602.66;5013353;28;20026;-68
2022/12/22 14:25:58;;;;;;;21.25;11.57;;;;;;;14.85;63.99;100608.00;5008467;28;20065;-68
2022/12/22 14:28:41;;;;;;;23.40;11.10;;;;;;;15.42;61.62;100594.59;5013162;28;20104;-67
2022/12/22 14:31:10;;;;;;;18.95;11.45;;;;;;;15.69;60.66;100587.97;5011092;28;20125;-68
2022/12/22 14:33:36;;;;;;;17.55;11.55;;;;;;;15.89;59.93;100586.41;5013603;28;20037;-66
2022/12/22 14:36:16;;;;;;;18.88;12.40;;;;;;;15.43;60.79;100580.78;5012765;28;20030;-70
2022/12/22 14:38:48;;;;;;;23.42;13.23;;;;;;;15.85;59.84;100588.84;5008596;28;20406;-68
2022/12/22 14:44:04;;;;;;;22.75;13.77;;;;;;;15.38;61.56;100596.16;4996055;28;20295;-68
2022/12/22 14:46:30;;;;;;;18.60;12.45;;;;;;;14.47;64.87;100594.66;5009788;28;20065;-69
2022/12/22 14:48:58;;;;;;;18.23;10.82;;;;;;;13.48;67.67;100582.47;5009205;28;20378;-69
2022/12/22 14:51:25;;;;;;;17.52;10.35;;;;;;;13.94;65.92;100592.75;5008757;28;20041;-70
2022/12/22 14:53:55;;;;;;;22.17;11.50;;;;;;;13.84;66.28;100582.66;5009855;28;20508;-68
2022/12/22 14:56:21;;;;;;;15.90;10.43;;;;;;;13.78;66.14;100597.16;5009900;28;20045;-68
2022/12/22 14:58:48;;;;;;;23.88;11.27;;;;;;;14.07;65.25;100589.66;5008688;28;20548;-67
2022/12/22 15:01:21;;;;;;;26.63;11.00;;;;;;;13.99;64.96;100593.63;5009054;28;20521;-67
2022/12/22 15:04:02;;;;;;;18.52;10.38;;;;;;;14.08;64.25;100594.00;5009358;28;20049;-68